sensor_id;sensor_type;location;lat;lon;timestamp;pressure;altitude;pressure_sealevel;temperature;humidity
14689;BME280;7432;48.728;9.154;2022-10-31T00:01:47;97055.28;;;11.50;100.00
14689;BME280;7432;48.728;9.154;2022-10-31T00:04:13;97053.31;;;11.44;100.00
14689;BME280;7432;48.728;9.154;2022-10-31T00:06:41;97061.69;;;11.46;100.00
14689;BME280;7432;48.728;9.154;2022-10-31T00:09:09;97048.28;;;11.42;100.00
14689;BME280;7432;48.728;9.154;2022-10-31T00:11:35;97054.25;;;11.43;100.00
14689;BME280;7432;48.728;9.154;2022-10-31T00:14:02;97051.97;;;11.40;100.00
14689;BME280;7432;48.728;9.154;2022-10-31T00:16:29;97049.69;;;11.37;100.00
14689;BME280;7432;48.728;9.154;2022-10-31T00:18:57;97048.75;;;11.38;100.00
14689;BME280;7432;48.728;9.154;2022-10-31T00:21:24;97050.97;;;11.32;100.00
14689;BME280;7432;48.728;9.154;2022-10-31T00:23:53;97049.19;;;11.33;100.00
14689;BME280;7432;48.728;9.154;2022-10-31T00:26:19;97049.50;;;11.30;100.00
14689;BME280;7432;48.728;9.154;2022-10-31T00:28:46;97048.97;;;11.26;100.00
14689;BME280;7432;48.728;9.154;2022-10-31T00:31:14;97053.50;;;11.24;100.00
14689;BME280;7432;48.728;9.154;2022-10-31T00:33:41;97050.75;;;11.26;100.00
14689;BME280;7432;48.728;9.154;2022-10-31T00:36:10;97049.34;;;11.31;100.00
14689;BME280;7432;48.728;9.154;2022-10-31T00:38:37;97051.22;;;11.21;100.00
14689;BME280;7432;48.728;9.154;2022-10-31T00:41:05;97055.13;;;11.25;100.00
14689;BME280;7432;48.728;9.154;2022-10-31T00:43:31;97057.31;;;11.20;100.00
14689;BME280;7432;48.728;9.154;2022-10-31T00:45:58;97057.41;;;11.11;100.00
14689;BME280;7432;48.728;9.154;2022-10-31T00:48:24;97057.13;;;11.14;100.00
14689;BME280;7432;48.728;9.154;2022-10-31T00:50:50;97035.25;;;11.00;100.00
14689;BME280;7432;48.728;9.154;2022-10-31T00:53:17;97053.88;;;11.12;100.00
14689;BME280;7432;48.728;9.154;2022-10-31T00:55:43;97057.34;;;11.03;100.00
14689;BME280;7432;48.728;9.154;2022-10-31T00:58:11;97054.19;;;11.09;100.00
14689;BME280;7432;48.728;9.154;2022-10-31T01:00:37;97049.44;;;11.04;100.00
14689;BME280;7432;48.728;9.154;2022-10-31T01:03:04;97059.41;;;10.99;100.00
14689;BME280;7432;48.728;9.154;2022-10-31T01:05:31;97052.31;;;11.01;100.00
14689;BME280;7432;48.728;9.154;2022-10-31T01:07:58;97047.78;;;10.95;100.00
14689;BME280;7432;48.728;9.154;2022-10-31T01:10:24;97051.16;;;10.96;100.00
14689;BME280;7432;48.728;9.154;2022-10-31T01:12:51;97054.41;;;10.98;100.00
14689;BME280;7432;48.728;9.154;2022-10-31T01:15:20;97033.03;;;10.88;100.00
14689;BME280;7432;48.728;9.154;2022-10-31T01:17:47;97058.47;;;11.00;100.00
14689;BME280;7432;48.728;9.154;2022-10-31T01:20:14;97047.78;;;10.95;100.00
14689;BME280;7432;48.728;9.154;2022-10-31T01:22:41;97050.50;;;10.94;100.00
14689;BME280;7432;48.728;9.154;2022-10-31T01:25:09;97048.09;;;10.92;100.00
14689;BME280;7432;48.728;9.154;2022-10-31T01:27:35;97035.34;;;10.91;100.00
14689;BME280;7432;48.728;9.154;2022-10-31T01:30:02;97042.41;;;10.89;100.00
14689;BME280;7432;48.728;9.154;2022-10-31T01:32:30;97039.59;;;10.82;100.00
14689;BME280;7432;48.728;9.154;2022-10-31T01:34:57;97044.25;;;10.79;100.00
14689;BME280;7432;48.728;9.154;2022-10-31T01:37:23;97047.50;;;10.81;100.00
14689;BME280;7432;48.728;9.154;2022-10-31T01:39:50;97045.44;;;10.84;100.00
14689;BME280;7432;48.728;9.154;2022-10-31T01:42:19;97039.75;;;10.81;100.00
14689;BME280;7432;48.728;9.154;2022-10-31T01:44:58;97044.41;;;10.77;100.00
14689;BME280;7432;48.728;9.154;2022-10-31T01:47:45;97038.75;;;10.74;100.00
14689;BME280;7432;48.728;9.154;2022-10-31T01:50:18;97040.88;;;10.78;100.00
14689;BME280;7432;48.728;9.154;2022-10-31T01:52:49;97033.78;;;10.80;100.00
14689;BME280;7432;48.728;9.154;2022-10-31T01:55:20;97037.47;;;10.78;100.00
14689;BME280;7432;48.728;9.154;2022-10-31T01:57:51;97027.34;;;10.76;100.00
14689;BME280;7432;48.728;9.154;2022-10-31T02:00:20;97027.09;;;10.69;100.00
14689;BME280;7432;48.728;9.154;2022-10-31T02:02:49;97028.72;;;10.70;100.00
14689;BME280;7432;48.728;9.154;2022-10-31T02:05:18;97034.63;;;10.81;100.00
14689;BME280;7432;48.728;9.154;2022-10-31T02:07:51;97018.56;;;10.87;100.00
14689;BME280;7432;48.728;9.154;2022-10-31T02:10:21;97022.75;;;10.88;100.00
14689;BME280;7432;48.728;9.154;2022-10-31T02:12:48;97021.28;;;10.85;100.00
14689;BME280;7432;48.728;9.154;2022-10-31T02:15:16;97023.50;;;10.80;100.00
14689;BME280;7432;48.728;9.154;2022-10-31T02:17:42;97025.31;;;10.88;100.00
14689;BME280;7432;48.728;9.154;2022-10-31T02:20:15;97025.84;;;10.91;100.00
14689;BME280;7432;48.728;9.154;2022-10-31T02:22:59;97023.44;;;10.90;100.00
14689;BME280;7432;48.728;9.154;2022-10-31T02:25:45;97022.09;;;10.86;100.00
14689;BME280;7432;48.728;9.154;2022-10-31T02:28:26;97021.06;;;10.79;100.00
14689;BME280;7432;48.728;9.154;2022-10-31T02:31:12;97031.09;;;10.82;100.00
14689;BME280;7432;48.728;9.154;2022-10-31T02:33:45;97024.31;;;10.81;100.00
14689;BME280;7432;48.728;9.154;2022-10-31T02:36:21;97024.88;;;10.75;100.00
14689;BME280;7432;48.728;9.154;2022-10-31T02:38:54;97020.56;;;10.75;100.00
14689;BME280;7432;48.728;9.154;2022-10-31T02:41:29;97026.28;;;10.69;100.00
14689;BME280;7432;48.728;9.154;2022-10-31T02:44:05;97023.41;;;10.72;100.00
14689;BME280;7432;48.728;9.154;2022-10-31T02:46:41;97028.72;;;10.70;100.00
14689;BME280;7432;48.728;9.154;2022-10-31T02:49:13;97026.44;;;10.67;100.00
14689;BME280;7432;48.728;9.154;2022-10-31T02:51:44;97023.88;;;10.67;100.00
14689;BME280;7432;48.728;9.154;2022-10-31T02:54:22;97019.75;;;10.57;100.00
14689;BME280;7432;48.728;9.154;2022-10-31T02:56:50;97022.38;;;10.47;100.00
14689;BME280;7432;48.728;9.154;2022-10-31T02:59:19;97014.53;;;10.49;100.00
14689;BME280;7432;48.728;9.154;2022-10-31T03:01:56;97017.47;;;10.54;100.00
14689;BME280;7432;48.728;9.154;2022-10-31T03:07:21;97020.41;;;10.59;100.00
14689;BME280;7432;48.728;9.154;2022-10-31T03:09:54;97011.97;;;10.49;100.00
14689;BME280;7432;48.728;9.154;2022-10-31T03:12:26;97013.84;;;10.47;100.00
14689;BME280;7432;48.728;9.154;2022-10-31T03:15:02;97016.88;;;10.42;100.00
14689;BME280;7432;48.728;9.154;2022-10-31T03:17:36;97019.44;;;10.42;100.00
14689;BME280;7432;48.728;9.154;2022-10-31T03:20:04;97004.44;;;10.38;100.00
14689;BME280;7432;48.728;9.154;2022-10-31T03:22:33;97012.66;;;10.41;100.00
14689;BME280;7432;48.728;9.154;2022-10-31T03:25:01;97009.72;;;10.36;100.00
14689;BME280;7432;48.728;9.154;2022-10-31T03:27:33;97011.47;;;10.36;100.00
14689;BME280;7432;48.728;9.154;2022-10-31T03:30:02;97012.47;;;10.35;100.00
14689;BME280;7432;48.728;9.154;2022-10-31T03:32:34;97015.31;;;10.32;100.00
14689;BME280;7432;48.728;9.154;2022-10-31T03:35:04;96996.84;;;10.19;100.00
14689;BME280;7432;48.728;9.154;2022-10-31T03:37:33;97016.94;;;10.33;100.00
14689;BME280;7432;48.728;9.154;2022-10-31T03:40:01;97010.69;;;10.35;100.00
14689;BME280;7432;48.728;9.154;2022-10-31T03:42:33;97000.09;;;10.21;100.00
14689;BME280;7432;48.728;9.154;2022-10-31T03:45:03;97019.41;;;10.25;100.00
14689;BME280;7432;48.728;9.154;2022-10-31T03:47:32;97020.38;;;10.24;100.00
14689;BME280;7432;48.728;9.154;2022-10-31T03:49:59;97008.16;;;10.26;100.00
14689;BME280;7432;48.728;9.154;2022-10-31T03:52:29;96999.31;;;10.10;100.00
14689;BME280;7432;48.728;9.154;2022-10-31T03:54:59;97007.50;;;10.24;100.00
14689;BME280;7432;48.728;9.154;2022-10-31T03:57:34;97006.53;;;10.25;100.00
14689;BME280;7432;48.728;9.154;2022-10-31T04:00:05;97017.00;;;10.23;100.00
14689;BME280;7432;48.728;9.154;2022-10-31T04:02:36;97007.16;;;10.19;100.00
14689;BME280;7432;48.728;9.154;2022-10-31T04:05:05;97008.63;;;10.11;100.00
14689;BME280;7432;48.728;9.154;2022-10-31T04:07:35;97010.69;;;10.08;100.00
14689;BME280;7432;48.728;9.154;2022-10-31T04:10:05;97006.88;;;10.12;100.00
14689;BME280;7432;48.728;9.154;2022-10-31T04:12:34;97010.00;;;10.16;100.00
14689;BME280;7432;48.728;9.154;2022-10-31T04:15:02;97009.88;;;10.07;100.00
14689;BME280;7432;48.728;9.154;2022-10-31T04:17:34;97006.88;;;10.12;100.00
14689;BME280;7432;48.728;9.154;2022-10-31T04:20:04;97011.19;;;10.11;100.00
14689;BME280;7432;48.728;9.154;2022-10-31T04:22:31;96998.13;;;10.05;100.00
14689;BME280;7432;48.728;9.154;2022-10-31T04:24:57;96989.59;;;10.04;100.00
14689;BME280;7432;48.728;9.154;2022-10-31T04:27:23;96999.63;;;9.98;100.00
14689;BME280;7432;48.728;9.154;2022-10-31T04:29:50;96991.91;;;9.98;100.00
14689;BME280;7432;48.728;9.154;2022-10-31T04:32:16;96996.94;;;9.99;100.00
14689;BME280;7432;48.728;9.154;2022-10-31T04:34:44;96992.56;;;10.00;100.00
14689;BME280;7432;48.728;9.154;2022-10-31T04:37:10;96998.53;;;10.00;100.00
14689;BME280;7432;48.728;9.154;2022-10-31T04:39:36;96991.63;;;10.01;100.00
14689;BME280;7432;48.728;9.154;2022-10-31T04:42:03;96988.25;;;10.00;100.00
14689;BME280;7432;48.728;9.154;2022-10-31T04:44:30;96988.16;;;9.92;100.00
14689;BME280;7432;48.728;9.154;2022-10-31T04:46:56;96984.47;;;9.95;100.00
14689;BME280;7432;48.728;9.154;2022-10-31T04:49:22;96993.97;;;9.94;100.00
14689;BME280;7432;48.728;9.154;2022-10-31T04:51:50;96977.28;;;9.98;100.00
14689;BME280;7432;48.728;9.154;2022-10-31T04:54:16;96980.88;;;9.88;100.00
14689;BME280;7432;48.728;9.154;2022-10-31T04:56:43;96983.72;;;9.85;100.00
14689;BME280;7432;48.728;9.154;2022-10-31T04:59:09;96985.78;;;9.81;100.00
14689;BME280;7432;48.728;9.154;2022-10-31T05:01:36;96976.28;;;9.82;100.00
14689;BME280;7432;48.728;9.154;2022-10-31T05:04:02;96976.88;;;9.76;100.00
14689;BME280;7432;48.728;9.154;2022-10-31T05:06:29;96975.38;;;9.73;100.00
14689;BME280;7432;48.728;9.154;2022-10-31T05:08:56;96970.13;;;9.75;100.00
14689;BME280;7432;48.728;9.154;2022-10-31T05:11:23;96973.19;;;9.78;100.00
14689;BME280;7432;48.728;9.154;2022-10-31T05:13:49;96975.25;;;9.75;100.00
14689;BME280;7432;48.728;9.154;2022-10-31T05:16:15;96975.81;;;9.69;100.00
14689;BME280;7432;48.728;9.154;2022-10-31T05:18:42;96978.59;;;9.58;100.00
14689;BME280;7432;48.728;9.154;2022-10-31T05:21:08;96967.19;;;9.60;100.00
14689;BME280;7432;48.728;9.154;2022-10-31T05:23:35;96969.66;;;9.62;100.00
14689;BME280;7432;48.728;9.154;2022-10-31T05:26:02;96968.13;;;9.59;100.00
14689;BME280;7432;48.728;9.154;2022-10-31T05:28:29;96967.75;;;9.54;100.00
14689;BME280;7432;48.728;9.154;2022-10-31T05:30:55;96969.38;;;9.55;100.00
14689;BME280;7432;48.728;9.154;2022-10-31T05:33:21;96972.53;;;9.49;100.00
14689;BME280;7432;48.728;9.154;2022-10-31T05:35:48;96971.97;;;9.45;100.00
14689;BME280;7432;48.728;9.154;2022-10-31T05:38:14;96962.41;;;9.47;100.00
14689;BME280;7432;48.728;9.154;2022-10-31T05:40:41;96964.16;;;9.47;100.00
14689;BME280;7432;48.728;9.154;2022-10-31T05:43:08;96966.47;;;9.40;100.00
14689;BME280;7432;48.728;9.154;2022-10-31T05:45:35;96965.09;;;9.46;100.00
14689;BME280;7432;48.728;9.154;2022-10-31T05:48:01;96956.19;;;9.40;100.00
14689;BME280;7432;48.728;9.154;2022-10-31T05:50:29;96958.63;;;9.42;100.00
14689;BME280;7432;48.728;9.154;2022-10-31T05:52:58;96949.72;;;9.36;100.00
14689;BME280;7432;48.728;9.154;2022-10-31T05:55:25;96955.25;;;9.41;100.00
14689;BME280;7432;48.728;9.154;2022-10-31T05:57:52;96951.03;;;9.40;100.00
14689;BME280;7432;48.728;9.154;2022-10-31T06:00:21;96953.75;;;9.39;100.00
14689;BME280;7432;48.728;9.154;2022-10-31T06:02:47;96960.66;;;9.38;100.00
14689;BME280;7432;48.728;9.154;2022-10-31T06:05:14;96957.66;;;9.43;100.00
14689;BME280;7432;48.728;9.154;2022-10-31T06:07:41;96963.06;;;9.40;100.00
14689;BME280;7432;48.728;9.154;2022-10-31T06:10:08;96946.72;;;9.41;100.00
14689;BME280;7432;48.728;9.154;2022-10-31T06:12:35;96949.56;;;9.38;100.00
14689;BME280;7432;48.728;9.154;2022-10-31T06:15:03;96947.53;;;9.41;100.00
14689;BME280;7432;48.728;9.154;2022-10-31T06:17:31;96952.94;;;9.48;100.00
14689;BME280;7432;48.728;9.154;2022-10-31T06:19:57;96953.59;;;9.50;100.00
14689;BME280;7432;48.728;9.154;2022-10-31T06:22:24;96948.94;;;9.53;100.00
14689;BME280;7432;48.728;9.154;2022-10-31T06:24:50;96943.41;;;9.58;100.00
14689;BME280;7432;48.728;9.154;2022-10-31T06:27:17;96949.63;;;9.56;100.00
14689;BME280;7432;48.728;9.154;2022-10-31T06:29:43;96946.09;;;9.57;100.00
14689;BME280;7432;48.728;9.154;2022-10-31T06:32:11;96956.06;;;9.69;100.00
14689;BME280;7432;48.728;9.154;2022-10-31T06:34:39;96952.25;;;9.73;100.00
14689;BME280;7432;48.728;9.154;2022-10-31T06:37:06;96955.25;;;9.69;100.00
14689;BME280;7432;48.728;9.154;2022-10-31T06:39:33;96951.16;;;9.76;100.00
14689;BME280;7432;48.728;9.154;2022-10-31T06:41:59;96948.28;;;9.79;100.00
14689;BME280;7432;48.728;9.154;2022-10-31T06:44:26;96962.41;;;9.75;100.00
14689;BME280;7432;48.728;9.154;2022-10-31T06:46:52;96956.38;;;9.84;100.00
14689;BME280;7432;48.728;9.154;2022-10-31T06:49:19;96953.75;;;9.93;100.00
14689;BME280;7432;48.728;9.154;2022-10-31T06:51:48;96955.47;;;10.02;100.00
14689;BME280;7432;48.728;9.154;2022-10-31T06:54:14;96957.91;;;10.04;100.00
14689;BME280;7432;48.728;9.154;2022-10-31T06:56:41;96955.69;;;10.09;100.00
14689;BME280;7432;48.728;9.154;2022-10-31T06:59:07;96957.31;;;10.10;100.00
14689;BME280;7432;48.728;9.154;2022-10-31T07:01:34;96948.97;;;10.26;100.00
14689;BME280;7432;48.728;9.154;2022-10-31T07:04:00;96955.38;;;10.39;100.00
14689;BME280;7432;48.728;9.154;2022-10-31T07:06:27;96953.63;;;10.40;100.00
14689;BME280;7432;48.728;9.154;2022-10-31T07:08:54;96956.63;;;10.53;99.91
14689;BME280;7432;48.728;9.154;2022-10-31T07:11:21;96952.41;;;10.69;99.77
14689;BME280;7432;48.728;9.154;2022-10-31T07:13:47;96954.28;;;10.85;99.24
14689;BME280;7432;48.728;9.154;2022-10-31T07:16:13;96954.78;;;11.06;98.77
14689;BME280;7432;48.728;9.154;2022-10-31T07:18:40;96961.94;;;11.20;98.28
14689;BME280;7432;48.728;9.154;2022-10-31T07:21:06;96967.78;;;11.64;97.91
14689;BME280;7432;48.728;9.154;2022-10-31T07:23:32;96964.13;;;12.17;96.12
14689;BME280;7432;48.728;9.154;2022-10-31T07:26:00;96966.31;;;12.45;93.92
14689;BME280;7432;48.728;9.154;2022-10-31T07:28:27;96968.88;;;12.62;92.16
14689;BME280;7432;48.728;9.154;2022-10-31T07:30:54;96960.66;;;12.66;91.07
14689;BME280;7432;48.728;9.154;2022-10-31T07:33:21;96971.47;;;12.86;90.84
14689;BME280;7432;48.728;9.154;2022-10-31T07:35:48;96976.00;;;13.08;90.01
14689;BME280;7432;48.728;9.154;2022-10-31T07:38:15;96967.09;;;13.27;89.08
14689;BME280;7432;48.728;9.154;2022-10-31T07:40:42;96961.31;;;13.63;87.66
14689;BME280;7432;48.728;9.154;2022-10-31T07:43:11;96955.13;;;14.11;86.01
14689;BME280;7432;48.728;9.154;2022-10-31T07:45:37;96959.16;;;14.45;83.84
14689;BME280;7432;48.728;9.154;2022-10-31T07:48:04;96967.78;;;14.82;82.29
14689;BME280;7432;48.728;9.154;2022-10-31T07:50:31;96957.31;;;15.13;80.99
14689;BME280;7432;48.728;9.154;2022-10-31T07:52:59;96961.09;;;15.55;78.94
14689;BME280;7432;48.728;9.154;2022-10-31T07:55:26;96957.78;;;15.75;78.07
14689;BME280;7432;48.728;9.154;2022-10-31T07:57:57;96963.09;;;16.18;76.62
14689;BME280;7432;48.728;9.154;2022-10-31T08:00:26;96964.91;;;16.74;74.38
14689;BME280;7432;48.728;9.154;2022-10-31T08:02:59;96965.41;;;17.12;71.82
14689;BME280;7432;48.728;9.154;2022-10-31T08:05:26;96976.16;;;17.58;69.85
14689;BME280;7432;48.728;9.154;2022-10-31T08:07:52;96970.31;;;17.90;68.90
14689;BME280;7432;48.728;9.154;2022-10-31T08:10:19;96956.16;;;18.12;67.42
14689;BME280;7432;48.728;9.154;2022-10-31T08:12:45;96960.63;;;18.31;67.37
14689;BME280;7432;48.728;9.154;2022-10-31T08:15:12;96969.50;;;18.44;66.39
14689;BME280;7432;48.728;9.154;2022-10-31T08:17:40;96964.13;;;18.58;66.15
14689;BME280;7432;48.728;9.154;2022-10-31T08:20:07;96972.38;;;18.68;64.96
14689;BME280;7432;48.728;9.154;2022-10-31T08:22:34;96969.78;;;18.68;64.83
14689;BME280;7432;48.728;9.154;2022-10-31T08:25:00;96963.94;;;18.66;65.25
14689;BME280;7432;48.728;9.154;2022-10-31T08:27:27;96964.97;;;18.78;65.95
14689;BME280;7432;48.728;9.154;2022-10-31T08:29:53;96958.94;;;18.71;65.83
14689;BME280;7432;48.728;9.154;2022-10-31T08:32:19;96959.72;;;18.65;65.29
14689;BME280;7432;48.728;9.154;2022-10-31T08:34:47;96961.84;;;18.42;66.37
14689;BME280;7432;48.728;9.154;2022-10-31T08:37:13;96963.38;;;18.10;67.61
14689;BME280;7432;48.728;9.154;2022-10-31T08:39:44;96956.94;;;17.65;68.50
14689;BME280;7432;48.728;9.154;2022-10-31T08:42:11;96958.19;;;17.42;69.96
14689;BME280;7432;48.728;9.154;2022-10-31T08:44:37;96954.84;;;17.20;71.56
14689;BME280;7432;48.728;9.154;2022-10-31T08:47:04;96954.25;;;16.97;72.91
14689;BME280;7432;48.728;9.154;2022-10-31T08:49:30;96945.06;;;16.73;73.80
14689;BME280;7432;48.728;9.154;2022-10-31T08:51:58;96940.84;;;16.72;72.73
14689;BME280;7432;48.728;9.154;2022-10-31T08:54:25;96937.03;;;16.68;73.97
14689;BME280;7432;48.728;9.154;2022-10-31T08:56:53;96936.59;;;16.65;75.15
14689;BME280;7432;48.728;9.154;2022-10-31T08:59:20;96940.59;;;16.67;74.60
14689;BME280;7432;48.728;9.154;2022-10-31T09:01:46;96940.38;;;16.62;74.97
14689;BME280;7432;48.728;9.154;2022-10-31T09:04:13;96938.22;;;16.51;74.92
14689;BME280;7432;48.728;9.154;2022-10-31T09:06:39;96944.72;;;16.55;75.34
14689;BME280;7432;48.728;9.154;2022-10-31T09:09:07;96935.59;;;16.66;74.86
14689;BME280;7432;48.728;9.154;2022-10-31T09:11:33;96936.81;;;16.48;74.17
14689;BME280;7432;48.728;9.154;2022-10-31T09:14:00;96934.72;;;16.58;73.90
14689;BME280;7432;48.728;9.154;2022-10-31T09:16:26;96939.16;;;16.58;73.93
14689;BME280;7432;48.728;9.154;2022-10-31T09:18:52;96935.91;;;16.56;73.66
14689;BME280;7432;48.728;9.154;2022-10-31T09:21:19;96940.38;;;16.62;74.04
14689;BME280;7432;48.728;9.154;2022-10-31T09:23:45;96933.94;;;16.58;74.60
14689;BME280;7432;48.728;9.154;2022-10-31T09:26:13;96933.13;;;16.57;74.17
14689;BME280;7432;48.728;9.154;2022-10-31T09:28:39;96928.19;;;16.63;73.67
14689;BME280;7432;48.728;9.154;2022-10-31T09:31:06;96927.38;;;16.62;73.88
14689;BME280;7432;48.728;9.154;2022-10-31T09:33:32;96933.44;;;16.69;74.95
14689;BME280;7432;48.728;9.154;2022-10-31T09:35:58;96920.44;;;16.69;73.79
14689;BME280;7432;48.728;9.154;2022-10-31T09:38:25;96920.69;;;16.53;74.26
14689;BME280;7432;48.728;9.154;2022-10-31T09:40:55;96921.31;;;16.55;73.82
14689;BME280;7432;48.728;9.154;2022-10-31T09:43:30;96929.13;;;16.55;74.24
14689;BME280;7432;48.728;9.154;2022-10-31T09:46:05;96925.66;;;16.69;75.09
14689;BME280;7432;48.728;9.154;2022-10-31T09:48:47;96930.16;;;16.82;75.73
14689;BME280;7432;48.728;9.154;2022-10-31T09:51:18;96919.16;;;16.86;75.71
14689;BME280;7432;48.728;9.154;2022-10-31T09:53:49;96925.56;;;17.11;75.98
14689;BME280;7432;48.728;9.154;2022-10-31T09:56:19;96925.75;;;17.10;75.38
14689;BME280;7432;48.728;9.154;2022-10-31T09:58:50;96926.59;;;17.17;74.75
14689;BME280;7432;48.728;9.154;2022-10-31T10:01:37;96921.47;;;17.30;74.80
14689;BME280;7432;48.728;9.154;2022-10-31T10:04:16;96921.75;;;17.42;74.36
14689;BME280;7432;48.728;9.154;2022-10-31T10:06:49;96917.78;;;17.52;74.10
14689;BME280;7432;48.728;9.154;2022-10-31T10:09:17;96924.28;;;17.63;74.37
14689;BME280;7432;48.728;9.154;2022-10-31T10:11:51;96919.56;;;17.80;74.47
14689;BME280;7432;48.728;9.154;2022-10-31T10:14:38;96908.94;;;17.88;73.10
14689;BME280;7432;48.728;9.154;2022-10-31T10:17:15;96909.41;;;18.04;72.98
14689;BME280;7432;48.728;9.154;2022-10-31T10:19:59;96909.84;;;18.14;72.12
14689;BME280;7432;48.728;9.154;2022-10-31T10:22:31;96915.47;;;18.18;72.12
14689;BME280;7432;48.728;9.154;2022-10-31T10:25:14;96904.03;;;18.25;72.19
14689;BME280;7432;48.728;9.154;2022-10-31T10:27:52;96914.09;;;18.28;71.91
14689;BME280;7432;48.728;9.154;2022-10-31T10:30:30;96911.69;;;18.27;72.33
14689;BME280;7432;48.728;9.154;2022-10-31T10:33:03;96915.09;;;18.34;72.01
14689;BME280;7432;48.728;9.154;2022-10-31T10:35:33;96908.06;;;18.34;71.81
14689;BME280;7432;48.728;9.154;2022-10-31T10:38:09;96907.28;;;18.41;72.26
14689;BME280;7432;48.728;9.154;2022-10-31T10:40:37;96904.69;;;18.41;71.90
14689;BME280;7432;48.728;9.154;2022-10-31T10:43:17;96900.13;;;18.49;71.74
14689;BME280;7432;48.728;9.154;2022-10-31T10:45:55;96900.13;;;18.49;71.89
14689;BME280;7432;48.728;9.154;2022-10-31T10:48:43;96901.53;;;18.52;72.08
14689;BME280;7432;48.728;9.154;2022-10-31T10:51:20;96891.28;;;18.50;72.20
14689;BME280;7432;48.728;9.154;2022-10-31T10:53:59;96887.63;;;18.45;71.95
14689;BME280;7432;48.728;9.154;2022-10-31T10:56:40;96889.63;;;18.43;72.00
14689;BME280;7432;48.728;9.154;2022-10-31T10:59:13;96878.78;;;18.39;72.05
14689;BME280;7432;48.728;9.154;2022-10-31T11:01:41;96876.13;;;18.00;72.87
14689;BME280;7432;48.728;9.154;2022-10-31T11:04:27;96875.91;;;17.95;72.41
14689;BME280;7432;48.728;9.154;2022-10-31T11:06:59;96875.28;;;17.86;73.64
14689;BME280;7432;48.728;9.154;2022-10-31T11:09:26;96875.47;;;17.85;74.29
14689;BME280;7432;48.728;9.154;2022-10-31T11:11:53;96868.25;;;17.80;74.06
14689;BME280;7432;48.728;9.154;2022-10-31T11:14:21;96855.56;;;17.70;74.93
14689;BME280;7432;48.728;9.154;2022-10-31T11:16:51;96859.25;;;17.89;73.26
14689;BME280;7432;48.728;9.154;2022-10-31T11:19:21;96854.09;;;18.15;73.04
14689;BME280;7432;48.728;9.154;2022-10-31T11:21:49;96849.28;;;18.12;71.01
14689;BME280;7432;48.728;9.154;2022-10-31T11:24:18;96851.69;;;18.14;71.05
14689;BME280;7432;48.728;9.154;2022-10-31T11:26:46;96847.25;;;17.95;70.99
14689;BME280;7432;48.728;9.154;2022-10-31T11:29:15;96839.81;;;17.92;71.19
14689;BME280;7432;48.728;9.154;2022-10-31T11:31:44;96840.41;;;17.94;71.46
14689;BME280;7432;48.728;9.154;2022-10-31T11:34:26;96839.06;;;18.11;70.68
14689;BME280;7432;48.728;9.154;2022-10-31T11:37:00;96824.22;;;18.11;70.54
14689;BME280;7432;48.728;9.154;2022-10-31T11:39:28;96820.00;;;18.17;70.19
14689;BME280;7432;48.728;9.154;2022-10-31T11:41:55;96806.34;;;17.95;68.89
14689;BME280;7432;48.728;9.154;2022-10-31T11:44:26;96825.59;;;18.01;69.14
14689;BME280;7432;48.728;9.154;2022-10-31T11:46:55;96832.78;;;17.86;68.04
14689;BME280;7432;48.728;9.154;2022-10-31T11:49:29;96826.19;;;17.96;67.39
14689;BME280;7432;48.728;9.154;2022-10-31T11:52:00;96825.41;;;18.02;69.32
14689;BME280;7432;48.728;9.154;2022-10-31T11:54:29;96825.63;;;18.20;69.42
14689;BME280;7432;48.728;9.154;2022-10-31T11:56:57;96815.63;;;18.44;68.82
14689;BME280;7432;48.728;9.154;2022-10-31T11:59:26;96821.44;;;18.59;66.68
14689;BME280;7432;48.728;9.154;2022-10-31T12:01:54;96813.00;;;18.70;66.23
14689;BME280;7432;48.728;9.154;2022-10-31T12:04:30;96813.84;;;18.57;65.56
14689;BME280;7432;48.728;9.154;2022-10-31T12:06:58;96808.00;;;18.62;66.48
14689;BME280;7432;48.728;9.154;2022-10-31T12:09:27;96806.97;;;18.69;67.53
14689;BME280;7432;48.728;9.154;2022-10-31T12:12:11;96799.53;;;18.86;68.38
14689;BME280;7432;48.728;9.154;2022-10-31T12:14:49;96794.91;;;18.94;67.22
14689;BME280;7432;48.728;9.154;2022-10-31T12:17:22;96786.03;;;19.02;66.83
14689;BME280;7432;48.728;9.154;2022-10-31T12:20:00;96789.81;;;19.13;67.69
14689;BME280;7432;48.728;9.154;2022-10-31T12:22:36;96777.91;;;19.30;67.59
14689;BME280;7432;48.728;9.154;2022-10-31T12:25:17;96785.50;;;19.44;65.96
14689;BME280;7432;48.728;9.154;2022-10-31T12:28:03;96784.53;;;19.32;63.06
14689;BME280;7432;48.728;9.154;2022-10-31T12:30:40;96780.16;;;19.20;63.35
14689;BME280;7432;48.728;9.154;2022-10-31T12:33:23;96776.16;;;19.11;64.06
14689;BME280;7432;48.728;9.154;2022-10-31T12:35:59;96768.59;;;18.96;63.80
14689;BME280;7432;48.728;9.154;2022-10-31T12:38:39;96766.22;;;18.81;64.57
14689;BME280;7432;48.728;9.154;2022-10-31T12:41:27;96761.81;;;18.69;65.33
14689;BME280;7432;48.728;9.154;2022-10-31T12:44:05;96758.03;;;18.65;67.22
14689;BME280;7432;48.728;9.154;2022-10-31T12:46:48;96748.81;;;18.62;67.79
14689;BME280;7432;48.728;9.154;2022-10-31T12:49:35;96749.00;;;18.61;68.26
14689;BME280;7432;48.728;9.154;2022-10-31T12:52:19;96743.41;;;18.51;69.41
14689;BME280;7432;48.728;9.154;2022-10-31T12:55:06;96736.56;;;18.43;68.64
14689;BME280;7432;48.728;9.154;2022-10-31T12:57:38;96729.53;;;18.37;69.65
14689;BME280;7432;48.728;9.154;2022-10-31T13:00:12;96724.13;;;18.32;70.28
14689;BME280;7432;48.728;9.154;2022-10-31T13:02:45;96706.72;;;18.19;69.77
14689;BME280;7432;48.728;9.154;2022-10-31T13:05:16;96718.13;;;18.12;67.88
14689;BME280;7432;48.728;9.154;2022-10-31T13:07:50;96716.13;;;18.07;68.38
14689;BME280;7432;48.728;9.154;2022-10-31T13:10:21;96719.13;;;18.04;69.69
14689;BME280;7432;48.728;9.154;2022-10-31T13:12:52;96710.13;;;18.07;71.92
14689;BME280;7432;48.728;9.154;2022-10-31T13:15:22;96711.13;;;18.06;71.81
14689;BME280;7432;48.728;9.154;2022-10-31T13:17:52;96702.69;;;18.04;71.94
14689;BME280;7432;48.728;9.154;2022-10-31T13:20:23;96698.88;;;17.93;71.72
14689;BME280;7432;48.728;9.154;2022-10-31T13:22:56;96699.50;;;17.89;72.04
14689;BME280;7432;48.728;9.154;2022-10-31T13:25:29;96698.28;;;17.85;72.60